createdAt,value
2023-03-27T00:03:15.387Z,0.38
2023-03-27T00:15:11.522Z,0.95
2023-03-27T00:27:11.929Z,0.08
2023-03-27T00:39:12.404Z,0.19
2023-03-27T00:51:12.825Z,0.10
2023-03-27T01:03:13.424Z,0.30
2023-03-27T01:15:13.863Z,0.02
2023-03-27T01:27:14.210Z,0.00
2023-03-27T01:39:14.652Z,1.04
2023-03-27T01:51:15.115Z,1.15
2023-03-27T02:03:18.294Z,0.01
2023-03-27T02:15:23.515Z,0.71
2023-03-27T02:27:16.458Z,1.47
2023-03-27T02:39:16.919Z,0.80
2023-03-27T02:51:17.398Z,0.92
2023-03-27T03:03:18.103Z,0.80
2023-03-27T03:15:18.288Z,0.73
2023-03-27T03:27:21.550Z,0.54
2023-03-27T03:39:21.990Z,1.30
2023-03-27T03:51:19.679Z,0.47
2023-03-27T04:03:20.174Z,0.44
2023-03-27T04:15:20.566Z,0.49
2023-03-27T04:27:21.013Z,0.28
2023-03-27T04:39:21.613Z,0.34
2023-03-27T04:51:21.934Z,0.25
2023-03-27T05:03:22.479Z,0.66
2023-03-27T05:15:22.805Z,0.34
2023-03-27T05:27:23.315Z,1.74
2023-03-27T05:39:23.766Z,1.39
2023-03-27T05:51:24.195Z,3.99
2023-03-27T06:03:24.883Z,3.00
2023-03-27T06:15:25.230Z,3.06
2023-03-27T06:27:25.526Z,4.18
2023-03-27T06:39:26.041Z,4.27
2023-03-27T06:51:26.416Z,4.01
2023-03-27T07:03:26.904Z,3.04
2023-03-27T07:15:27.319Z,2.69
2023-03-27T07:27:27.760Z,3.50
2023-03-27T07:39:28.265Z,4.62
2023-03-27T07:51:28.873Z,2.72
2023-03-27T08:03:29.196Z,2.87
2023-03-27T08:15:29.613Z,5.03
2023-03-27T08:27:30.036Z,4.07
2023-03-27T08:39:30.530Z,4.78
2023-03-27T08:51:30.975Z,5.15
2023-03-27T09:03:31.547Z,4.89
2023-03-27T09:15:31.848Z,5.92
2023-03-27T09:27:32.302Z,6.51
2023-03-27T09:39:32.802Z,4.62
2023-03-27T09:51:33.201Z,5.40
2023-03-27T10:03:33.739Z,6.54
2023-03-27T10:15:34.233Z,5.26
2023-03-27T10:27:34.567Z,6.79
2023-03-27T10:39:35.044Z,5.46
2023-03-27T10:51:45.469Z,5.71
2023-03-27T11:03:36.039Z,7.31
2023-03-27T11:15:36.387Z,6.18
2023-03-27T11:27:36.846Z,9.87
2023-03-27T11:51:40.487Z,6.75
2023-03-27T12:03:38.306Z,7.48
2023-03-27T12:15:38.629Z,5.57
2023-03-27T12:27:39.142Z,9.14
2023-03-27T12:39:39.627Z,6.39
2023-03-27T12:51:40.027Z,7.44
2023-03-27T13:03:40.602Z,9.10
2023-03-27T13:15:41.041Z,9.29
2023-03-27T13:27:41.380Z,8.42
2023-03-27T13:39:41.818Z,5.57
2023-03-27T13:51:42.272Z,6.22
2023-03-27T14:03:42.834Z,7.88
2023-03-27T14:15:43.202Z,5.96
2023-03-27T14:27:43.654Z,6.70
2023-03-27T14:39:44.072Z,6.03
2023-03-27T14:51:44.564Z,7.96
2023-03-27T15:03:45.017Z,6.02
2023-03-27T15:15:45.490Z,5.46
2023-03-27T15:27:45.895Z,5.86
2023-03-27T15:39:46.382Z,6.64
2023-03-27T15:51:46.892Z,6.42
2023-03-27T16:03:47.412Z,9.43
2023-03-27T16:15:47.736Z,7.44
2023-03-27T16:27:48.168Z,7.49
2023-03-27T16:39:48.627Z,5.75
2023-03-27T16:51:49.143Z,7.70
2023-03-27T17:03:49.505Z,4.64
2023-03-27T17:15:50.009Z,4.58
2023-03-27T17:27:50.475Z,5.07
2023-03-27T17:39:50.883Z,3.19
2023-03-27T17:51:51.321Z,6.76
2023-03-27T18:03:51.899Z,5.39
2023-03-27T18:15:52.260Z,4.42
2023-03-27T18:27:52.701Z,5.89
2023-03-27T18:39:53.162Z,6.84
2023-03-27T18:51:53.592Z,6.15
2023-03-27T19:03:54.045Z,7.42
2023-03-27T19:15:54.496Z,4.80
2023-03-27T19:27:54.957Z,2.93
2023-03-27T19:39:55.407Z,4.70
2023-03-27T19:51:55.886Z,6.02
2023-03-27T20:03:59.137Z,5.15
2023-03-27T20:15:56.907Z,4.53
2023-03-27T20:27:57.268Z,4.01
2023-03-27T20:39:57.692Z,3.23
2023-03-27T20:51:58.110Z,4.26
2023-03-27T21:03:58.806Z,3.00
2023-03-27T21:15:59.202Z,4.18
2023-03-27T21:28:01.694Z,4.02
2023-03-27T21:40:02.732Z,3.06
2023-03-27T21:52:00.382Z,2.45
2023-03-27T22:04:00.863Z,2.27
2023-03-27T22:16:01.621Z,3.52
2023-03-27T22:28:06.456Z,3.44
2023-03-27T22:40:02.188Z,3.10
2023-03-27T22:52:02.649Z,2.68
2023-03-27T23:04:03.183Z,2.99
2023-03-27T23:16:03.539Z,1.39
2023-03-27T23:28:04.010Z,0.33
2023-03-27T23:40:04.529Z,0.79
2023-03-27T23:52:04.854Z,1.70
